Wednesday, November 14, 2018, 1:46 AM EST
Back to Local

KBTV, Burlington International

Location: South Burlington, VT, United States Lat: 44.467
Local Time: 1:46 AM EST ( 6:46 GMT) Lon: -73.15
Time Zone: US/Eastern Elev: 334 ft

Show me the last for .
Show Decoded

2018-11-14 00:54 METAR KBTV 140554Z 33006KT 10SM FEW070 M06/M12 A3011 RMK AO2 SLP201 T10561117
                 10006 21056 50014 =
2018-11-13 23:54 METAR KBTV 140454Z 33006KT 10SM SCT046 SCT070 M05/M12 A3012 RMK AO2 SLP203 LAST
                 T10501122 400391050 =
2018-11-13 22:54 METAR KBTV 140354Z 30013KT 10SM SCT050 M04/M12 A3010 RMK AO2 PK WND 32030/0256
                 SLP197 T10391122 =
2018-11-13 21:54 METAR KBTV 140254Z 32015G26KT 10SM BKN042 OVC050 M03/M11 A3007 RMK AO2 PK WND
                 31030/0236 SLP187 T10281111 51036 =
2018-11-13 20:54 METAR KBTV 140154Z 30018G29KT 10SM FEW032 SCT039 OVC048 M02/M08 A3004 RMK AO2 PK
                 WND 30029/0153 SLP176 T10171083 =
2018-11-13 20:16 METAR KBTV 140116Z 32018KT 10SM BKN033 OVC060 M01/M07 A3001 =
2018-11-13 19:54 METAR KBTV 140054Z 30014G22KT 10SM OVC028 M01/M06 A3001 RMK AO2 SLP165 T10061061
                 =
2018-11-13 19:35 METAR KBTV 140035Z 33012G23KT 10SM OVC026 00/M04 A2999 RMK AO2 T00001044 =
2018-11-13 18:54 METAR KBTV 132354Z 01011G20KT 10SM SCT024 BKN030 OVC038 01/M04 A2996 RMK AO2 PK
                 WND 32029/2323 SLP150 4/001 60000 T00061039 10033 20006 53026 =
2018-11-13 17:54 METAR KBTV 132254Z 31017G25KT 10SM FEW011 OVC038 03/M01 A2991 RMK AO2 SLP131
                 T00281011 =
2018-11-13 17:16 METAR KBTV 132216Z 18004KT 7SM SCT021 BKN031 OVC038 02/01 A2989 RMK AO2
                 T00170011 =
2018-11-13 16:54 METAR KBTV 132154Z 19004KT 2SM BR SCT018 SCT027 OVC038 02/01 A2989 RMK AO2 SFC
                 VIS 4 RAB10E34 SLP126 P0000 T00170011 =
2018-11-13 16:30 METAR KBTV 132130Z 22003KT 2SM -RA BR FEW003 BKN013 OVC033 02/01 A2989 RMK AO2
                 RAB10 P0000 T00170011 =
2018-11-13 16:03 METAR KBTV 132103Z 00000KT 2SM BR OVC003 02/01 A2988 RMK AO2 T00170011 =
2018-11-13 15:54 METAR KBTV 132054Z 00000KT 1SM R15/P6000FT BR BKN003 OVC032 02/01 A2988 RMK AO2
                 SFC VIS 2 1/2 SLP123 T00170011 55013 =
2018-11-13 14:54 METAR KBTV 131954Z 00000KT 1SM R15/P6000FT BR OVC002 02/01 A2988 RMK AO2 SLP120
                 T00170011 =
2018-11-13 14:37 METAR KBTV 131937Z 00000KT 1SM R15/2800VP6000FT BR OVC003 02/01 A2988 =
2018-11-13 14:09 METAR KBTV 131909Z 11003KT 1/4SM R15/5000VP6000FT FG VV003 02/01 A2989 =
2018-11-13 13:54 METAR KBTV 131854Z 00000KT 1 1/4SM BR OVC002 02/01 A2989 RMK AO2 SLP125
                 T00170006 =
2018-11-13 13:09 METAR KBTV 131809Z 08003KT 1SM R15/P6000FT BR OVC003 02/01 A2990 =
2018-11-13 13:02 METAR KBTV 131802Z 00000KT 4SM BR OVC003 01/01 A2991 RMK AO2 T00110006 =
2018-11-13 12:54 METAR KBTV 131754Z 00000KT 3/4SM R15/5500VP6000FT BR OVC003 01/01 A2992 RMK AO2
                 SFC VIS 4 SLP137 4/002 60031 T00110006 10017 20006 56033 =
2018-11-13 12:21 METAR KBTV 131721Z 00000KT 3/4SM R15/P6000FT BR OVC004 01/00 A2993 RMK AO2 TWR
                 VIS 2 T00110000 =
2018-11-13 12:13 METAR KBTV 131713Z 00000KT 1 1/2SM BR BKN004 OVC055 01/01 A2994 RMK AO2 TWR VIS
                 2 T00110006 =
2018-11-13 12:07 METAR KBTV 131707Z 00000KT 10SM BKN004 BKN022 OVC055 01/01 A2994 RMK AO2
                 T00110006 =
2018-11-13 11:54 METAR KBTV 131654Z 00000KT 9SM FEW003 BKN024 OVC055 01/01 A2996 RMK AO2
                 RAB04E31SNE31 SLP147 P0001 T00110006 =
2018-11-13 11:47 METAR KBTV 131647Z 00000KT 9SM FEW003 BKN025 OVC055 01/01 A2995 RMK AO2
                 RAB04E31SNE31 P0001 T00110011 =
2018-11-13 11:31 METAR KBTV 131631Z 00000KT 7SM FEW015 BKN027 OVC055 01/00 A2997 RMK AO2
                 RAB04E31SNE31 P0001 T00110000 =
2018-11-13 11:22 METAR KBTV 131622Z 00000KT 4SM -RASN BR FEW013 BKN030 OVC055 01/00 A2997 RMK AO2
                 RAB04 P0001 T00110000 =
2018-11-13 11:14 METAR KBTV 131614Z 00000KT 3SM -RASN BR BKN014 OVC025 01/00 A2997 RMK AO2 RAB04
                 P0001 T00110000 =
2018-11-13 11:01 METAR KBTV 131601Z 00000KT 2 1/2SM R15/3000VP6000FT -SN BR BKN014 OVC021 01/00
                 A2998 =
2018-11-13 10:54 METAR KBTV 131554Z 00000KT 1 3/4SM R15/2600V6000FT -SN BR OVC016 01/00 A2998 RMK
                 AO2 SLP155 P0004 T00060000 =
2018-11-13 10:47 METAR KBTV 131547Z 00000KT 2SM R15/4000VP6000FT -SN BR OVC016 01/00 A2998 RMK
                 AO2 P0004 T00060000 =
2018-11-13 10:02 METAR KBTV 131502Z 00000KT 1 1/4SM R15/3000V5500FT -SN BR FEW007 OVC015 01/00
                 A3002 RMK AO2 P0001 T00060000 =
2018-11-13 09:54 METAR KBTV 131454Z 00000KT 1SM R15/3000V5000FT -SN BR FEW004 FEW007 OVC013 01/00
                 A3002 RMK AO2 SLP170 P0008 60026 T00060000 56028 =
2018-11-13 09:50 METAR KBTV 131450Z 00000KT 1SM R15/3500V5000FT -SN BR FEW004 OVC013 01/00 A3002
                 RMK AO2 P0008 =
2018-11-13 09:32 METAR KBTV 131432Z 00000KT 3/4SM R15/1800V4000FT -SN BR FEW004 OVC011 01/00
                 A3004 RMK AO2 P0006 T00060000 =
2018-11-13 09:21 METAR KBTV 131421Z 00000KT 1SM R15/2000V5000FT -SN BR VV011 01/00 A3004 =
2018-11-13 08:54 METAR KBTV 131354Z 00000KT 1 1/4SM R15/5000VP6000FT -SN BR OVC009 01/00 A3006
                 RMK AO2 SLP185 P0009 T00060000 =
2018-11-13 08:22 METAR KBTV 131322Z 00000KT 1SM R15/4000V5500FT -SN BR VV009 01/00 A3008 RMK AO2
                 P0004 T00060000 =
2018-11-13 07:54 METAR KBTV 131254Z 00000KT 3/4SM R15/4500V6000FT -SN BR FEW009 OVC013 01/00
                 A3011 RMK AO2 SLP198 P0009 T00060000 =
2018-11-13 07:32 METAR KBTV 131232Z 13003KT 1/2SM R15/4500V5000FT SN FG VV012 01/M01 A3012 RMK
                 AO2 P0006 T00061006 =
2018-11-13 07:10 METAR KBTV 131210Z 00000KT 1SM R15/3000V5500FT -SN BR VV010 01/00 A3012 RMK AO2
                 P0003 T00060000 =
2018-11-13 06:54 METAR KBTV 131154Z 00000KT 1SM R15/4500V6000FT -SN BR SCT005 OVC009 01/00 A3012
                 RMK AO2 RAE05 SLP204 4/001 P0008 60013 70015 T00060000 10039 20006 58014 =
2018-11-13 06:38 METAR KBTV 131138Z 00000KT 1SM R15/P6000FT -SN BR VV007 01/00 A3013 =
2018-11-13 06:22 METAR KBTV 131122Z 18003KT 1 1/4SM R15/5000VP6000FT -SN BR OVC008 01/00 A3013 =
2018-11-13 06:16 METAR KBTV 131116Z 16003KT 1 1/2SM -SN BR OVC010 01/00 A3013 RMK AO2 RAE05 P0004
                 T00060000 =
2018-11-13 06:07 METAR KBTV 131107Z 15003KT 2SM -SN BR OVC010 01/00 A3014 =
2018-11-13 05:54 METAR KBTV 131054Z 16005KT 4SM -RASN BR OVC008 01/00 A3014 RMK AO2 SNB18 SLP210
                 P0005 T00110000 =
2018-11-13 05:28 METAR KBTV 131028Z 20004KT 6SM -RASN BR BKN008 BKN019 OVC027 02/01 A3015 =
2018-11-13 05:20 METAR KBTV 131020Z 18004KT 7SM -RASN SCT008 BKN013 OVC046 03/01 A3016 RMK AO2
                 SNB18 P0001 T00280006 =
2018-11-13 05:14 METAR KBTV 131014Z 18006KT 8SM -RA FEW010 BKN026 OVC046 03/01 A3016 RMK AO2
                 P0001 T00280006 =
2018-11-13 04:54 METAR KBTV 130954Z 19009KT 10SM -RA FEW014 SCT033 OVC046 03/01 A3016 RMK AO2
                 RAE0855B36 SLP216 P0000 T00330006 =
2018-11-13 03:54 METAR KBTV 130854Z 00000KT 10SM -RA OVC043 03/01 A3017 RMK AO2 RAB43 SLP218
                 P0000 60000 T00330006 58030 =
2018-11-13 02:54 METAR KBTV 130754Z 10004KT 10SM OVC100 02/01 A3020 RMK AO2 SLP229 T00220006 =
2018-11-13 01:54 METAR KBTV 130654Z 12005KT 10SM FEW042 BKN070 OVC095 02/01 A3023 RMK AO2
                 RAE0555UPB0555E17 SLP239 P0000 T00220006 =

Support USWX by starting your Amazon purchase here.